createdAt,value
2022-09-23T00:00:38.215Z,0
2022-09-23T00:05:38.250Z,0
2022-09-23T00:25:40.903Z,0
2022-09-23T00:30:46.706Z,0
2022-09-23T00:35:38.692Z,0
2022-09-23T00:40:38.278Z,0
2022-09-23T00:45:38.198Z,0
2022-09-23T00:50:38.209Z,0
2022-09-23T00:55:38.224Z,0
2022-09-23T01:00:38.195Z,0
2022-09-23T01:05:38.192Z,0
2022-09-23T01:10:38.470Z,0
2022-09-23T01:15:38.190Z,0
2022-09-23T01:20:38.721Z,0
2022-09-23T01:25:38.232Z,0
2022-09-23T01:30:38.209Z,0
2022-09-23T01:35:38.214Z,0
2022-09-23T01:40:38.292Z,0
2022-09-23T01:45:38.243Z,0
2022-09-23T01:50:38.495Z,0
2022-09-23T01:55:38.235Z,0
2022-09-23T02:00:38.360Z,0
2022-09-23T02:05:38.212Z,0
2022-09-23T02:10:38.233Z,0
2022-09-23T02:15:38.252Z,0
2022-09-23T02:20:38.230Z,0
2022-09-23T02:25:38.256Z,0
2022-09-23T02:30:38.377Z,0
2022-09-23T02:35:38.488Z,0
2022-09-23T02:40:38.441Z,0
2022-09-23T02:45:38.322Z,0
2022-09-23T02:50:38.264Z,0
2022-09-23T02:55:38.445Z,0
2022-09-23T03:00:38.321Z,0
2022-09-23T03:05:38.262Z,0
2022-09-23T03:10:38.294Z,0
2022-09-23T03:15:38.207Z,0
2022-09-23T03:20:38.385Z,0
2022-09-23T03:25:38.256Z,0
2022-09-23T03:30:38.256Z,0
2022-09-23T03:35:38.273Z,0
2022-09-23T03:40:38.377Z,0
2022-09-23T03:45:38.368Z,0
2022-09-23T03:50:38.298Z,0
2022-09-23T03:55:38.279Z,0
2022-09-23T04:00:38.314Z,0
2022-09-23T04:05:38.226Z,0
2022-09-23T04:10:38.219Z,0
2022-09-23T04:15:38.283Z,0
2022-09-23T04:20:38.745Z,0
2022-09-23T04:25:38.380Z,0
2022-09-23T04:30:38.239Z,0
2022-09-23T04:35:40.266Z,0
2022-09-23T04:40:38.345Z,0
2022-09-23T04:45:38.234Z,256
2022-09-23T04:51:48.494Z,257
2022-09-23T04:55:38.446Z,260
2022-09-23T05:00:38.320Z,264
2022-09-23T05:05:38.316Z,269
2022-09-23T05:10:38.327Z,275
2022-09-23T05:15:38.263Z,282
2022-09-23T05:20:38.398Z,289
2022-09-23T05:25:38.473Z,304
2022-09-23T05:30:38.274Z,315
2022-09-23T05:35:38.337Z,328
2022-09-23T05:40:38.421Z,342
2022-09-23T05:45:38.233Z,352
2022-09-23T05:50:38.326Z,364
2022-09-23T05:55:42.645Z,372
2022-09-23T06:00:38.277Z,381
2022-09-23T06:05:38.281Z,386
2022-09-23T06:10:38.799Z,394
2022-09-23T06:15:38.243Z,407
2022-09-23T06:20:38.281Z,423
2022-09-23T06:25:38.289Z,435
2022-09-23T06:30:38.249Z,453
2022-09-23T06:35:38.266Z,467
2022-09-23T06:40:38.440Z,470
2022-09-23T06:45:38.266Z,465
2022-09-23T06:50:38.290Z,466
2022-09-23T06:55:38.288Z,480
2022-09-23T07:00:38.333Z,514
2022-09-23T07:05:38.284Z,572
2022-09-23T07:10:38.296Z,615
2022-09-23T07:15:38.263Z,650
2022-09-23T07:20:38.257Z,677
2022-09-23T07:25:38.302Z,785
2022-09-23T07:30:38.674Z,895
2022-09-23T07:35:38.336Z,931
2022-09-23T07:40:38.547Z,978
2022-09-23T07:45:38.279Z,1437
2022-09-23T07:50:38.649Z,12368
2022-09-23T07:55:38.292Z,11849
2022-09-23T08:00:38.323Z,14645
2022-09-23T08:05:38.294Z,14828
2022-09-23T08:10:38.356Z,6150
2022-09-23T08:15:38.313Z,2391
2022-09-23T08:20:38.338Z,2605
2022-09-23T08:25:38.316Z,2964
2022-09-23T08:30:38.537Z,15504
2022-09-23T08:35:38.316Z,14982
2022-09-23T08:40:38.355Z,13445
2022-09-23T08:45:38.350Z,11483
2022-09-23T08:50:39.183Z,14415
2022-09-23T08:55:38.313Z,14203
2022-09-23T09:00:38.314Z,16754
2022-09-23T09:05:38.282Z,14605
2022-09-23T09:10:38.287Z,16301
2022-09-23T09:15:38.287Z,12802
2022-09-23T09:20:38.334Z,11584
2022-09-23T09:25:38.331Z,12857
2022-09-23T09:30:38.342Z,13415
2022-09-23T09:35:38.326Z,13892
2022-09-23T09:40:38.353Z,12235
2022-09-23T09:45:38.980Z,10926
2022-09-23T09:50:38.815Z,9327
2022-09-23T09:55:38.327Z,3418
2022-09-23T10:00:38.223Z,2731
2022-09-23T10:05:38.263Z,2908
2022-09-23T10:10:38.250Z,7118
2022-09-23T10:15:41.262Z,4665
2022-09-23T10:20:38.271Z,2111
2022-09-23T10:25:38.268Z,2592
2022-09-23T10:30:38.292Z,2482
2022-09-23T10:35:38.265Z,1976
2022-09-23T10:40:38.393Z,2122
2022-09-23T10:45:39.687Z,1781
2022-09-23T10:50:38.404Z,1732
2022-09-23T10:55:38.375Z,2046
2022-09-23T11:00:38.255Z,2890
2022-09-23T11:05:38.349Z,3028
2022-09-23T11:10:46.190Z,4332
2022-09-23T11:15:38.274Z,1390
2022-09-23T11:20:38.307Z,1264
2022-09-23T11:25:38.332Z,1195
2022-09-23T11:30:38.379Z,1319
2022-09-23T11:35:38.316Z,1289
2022-09-23T11:40:39.883Z,1277
2022-09-23T11:45:38.509Z,1274
2022-09-23T11:50:38.372Z,1279
2022-09-23T11:55:40.766Z,1268
2022-09-23T12:00:38.521Z,1220
2022-09-23T12:05:38.454Z,1133
2022-09-23T12:10:38.331Z,1043
2022-09-23T12:15:38.290Z,1067
2022-09-23T12:20:38.361Z,1131
2022-09-23T12:25:38.331Z,1560
2022-09-23T12:30:38.375Z,1177
2022-09-23T12:35:38.387Z,1047
2022-09-23T12:40:38.362Z,952
2022-09-23T12:45:38.390Z,966
2022-09-23T12:51:10.331Z,982
2022-09-23T12:55:38.346Z,917
2022-09-23T13:00:38.317Z,885
2022-09-23T13:05:38.324Z,830
2022-09-23T13:10:38.396Z,837
2022-09-23T13:15:38.319Z,837
2022-09-23T13:20:38.430Z,844
2022-09-23T13:25:38.360Z,831
2022-09-23T13:30:38.381Z,821
2022-09-23T13:35:38.369Z,807
2022-09-23T13:40:38.430Z,778
2022-09-23T13:45:38.406Z,822
2022-09-23T13:50:38.389Z,738
2022-09-23T13:55:38.349Z,680
2022-09-23T14:00:38.388Z,696
2022-09-23T14:05:38.883Z,685
2022-09-23T14:10:38.454Z,686
2022-09-23T14:15:38.629Z,675
2022-09-23T14:20:38.419Z,596
2022-09-23T14:25:38.413Z,658
2022-09-23T14:30:38.635Z,662
2022-09-23T14:35:38.402Z,586
2022-09-23T14:40:38.439Z,583
2022-09-23T14:45:38.556Z,655
2022-09-23T14:50:38.479Z,680
2022-09-23T14:55:38.392Z,608
2022-09-23T15:00:38.396Z,551
2022-09-23T15:05:38.396Z,631
2022-09-23T15:10:39.603Z,603
2022-09-23T15:15:38.402Z,485
2022-09-23T15:20:38.442Z,461
2022-09-23T15:25:38.410Z,483
2022-09-23T15:30:38.416Z,379
2022-09-23T15:35:38.683Z,364
2022-09-23T15:40:38.484Z,359
2022-09-23T15:45:38.442Z,402
2022-09-23T15:50:38.562Z,431
2022-09-23T15:55:38.417Z,391
2022-09-23T16:00:40.669Z,377
2022-09-23T16:05:38.447Z,365
2022-09-23T16:10:38.470Z,340
2022-09-23T16:15:38.927Z,335
2022-09-23T16:20:38.431Z,352
2022-09-23T16:25:38.666Z,323
2022-09-23T16:30:38.494Z,301
2022-09-23T16:35:38.442Z,294
2022-09-23T16:40:40.537Z,290
2022-09-23T16:45:38.533Z,284
2022-09-23T16:50:38.577Z,277
2022-09-23T16:55:42.618Z,272
2022-09-23T17:00:38.548Z,268
2022-09-23T17:05:38.481Z,263
2022-09-23T17:10:38.483Z,259
2022-09-23T17:15:38.539Z,257
2022-09-23T17:20:38.458Z,257
2022-09-23T17:25:38.473Z,0
2022-09-23T17:30:38.550Z,0
2022-09-23T17:35:38.437Z,0
2022-09-23T17:40:38.485Z,0
2022-09-23T17:45:38.515Z,0
2022-09-23T17:50:38.492Z,0
2022-09-23T17:55:38.522Z,0
2022-09-23T18:00:38.474Z,0
2022-09-23T18:05:38.521Z,0
2022-09-23T18:10:38.491Z,0
2022-09-23T18:15:38.435Z,0
2022-09-23T18:20:38.511Z,0
2022-09-23T18:25:40.485Z,0
2022-09-23T18:30:38.674Z,0
2022-09-23T18:35:38.535Z,0
2022-09-23T18:40:38.553Z,0
2022-09-23T18:45:38.482Z,0
2022-09-23T18:50:38.562Z,0
2022-09-23T18:55:38.494Z,0
2022-09-23T19:00:38.528Z,0
2022-09-23T19:05:38.535Z,0
2022-09-23T19:10:38.988Z,0
2022-09-23T19:15:38.504Z,0
2022-09-23T19:20:38.521Z,0
2022-09-23T19:25:38.464Z,0
2022-09-23T19:30:38.500Z,0
2022-09-23T19:35:38.517Z,0
2022-09-23T19:40:39.519Z,0
2022-09-23T19:45:38.515Z,0
2022-09-23T19:50:38.537Z,0
2022-09-23T19:55:38.502Z,0
2022-09-23T20:00:38.604Z,0
2022-09-23T20:05:38.512Z,0
2022-09-23T20:10:38.536Z,0
2022-09-23T20:15:38.482Z,0
2022-09-23T20:20:38.495Z,0
2022-09-23T20:25:38.528Z,0
2022-09-23T20:30:38.527Z,0
2022-09-23T20:35:38.532Z,0
2022-09-23T20:40:38.651Z,0
2022-09-23T20:45:38.510Z,0
2022-09-23T20:50:38.568Z,0
2022-09-23T20:55:38.540Z,0
2022-09-23T21:00:38.558Z,0
2022-09-23T21:05:38.540Z,0
2022-09-23T21:10:38.555Z,0
2022-09-23T21:15:38.510Z,0
2022-09-23T21:20:38.543Z,0
2022-09-23T21:25:38.569Z,0
2022-09-23T21:30:38.597Z,0
2022-09-23T21:35:38.525Z,0
2022-09-23T21:40:38.591Z,0
2022-09-23T21:45:38.486Z,0
2022-09-23T21:50:38.778Z,0
2022-09-23T21:55:38.557Z,0
2022-09-23T22:00:38.622Z,0
2022-09-23T22:05:38.523Z,0
2022-09-23T22:10:38.603Z,0
2022-09-23T22:15:38.783Z,0
2022-09-23T22:20:38.537Z,0
2022-09-23T22:25:43.930Z,0
2022-09-23T22:30:38.866Z,0
2022-09-23T22:35:38.633Z,0
2022-09-23T22:40:38.621Z,0
2022-09-23T22:45:38.581Z,0
2022-09-23T22:50:38.533Z,0
2022-09-23T22:55:38.669Z,0
2022-09-23T23:00:38.572Z,0
2022-09-23T23:05:39.008Z,0
2022-09-23T23:10:38.650Z,0
2022-09-23T23:15:38.735Z,0
2022-09-23T23:20:38.552Z,0
2022-09-23T23:25:50.597Z,0
2022-09-23T23:30:38.561Z,0
2022-09-23T23:35:38.838Z,0
2022-09-23T23:40:38.720Z,0
2022-09-23T23:45:43.813Z,0
2022-09-23T23:50:38.613Z,0
2022-09-23T23:55:38.727Z,0
